Time;durP1;ratioP1;P1;durP2;ratioP2;P2;SDS_P1;SDS_P2;PMS_P1;PMS_P2;Temp;Humidity;BMP_temperature;BMP_pressure;BME280_temperature;BME280_humidity;BME280_pressure;Samples;Min_cycle;Max_cycle;Signal;HPM_P1;HPM_P2
2021/07/27 00:08:38;;;;;;;;;;;18.30;99.90;;;;;;5070623;28;19958;-84
2021/07/27 00:23:43;;;;;;;;;;;;;;;;;;;;;
2021/07/27 00:26:41;;;;;;;;;;;18.10;99.90;;;;;;5078291;28;20011;-84
2021/07/27 00:29:10;;;;;;;;;;;18.10;99.90;;;;;;5063450;28;20507;-84
2021/07/27 00:31:38;;;;;;;;;;;18.00;99.90;;;;;;5060622;28;19916;-84
2021/07/27 00:34:11;;;;;;;;;;;18.00;99.90;;;;;;5065670;28;19912;-84
2021/07/27 00:45:48;;;;;;;;;;;;;;;;;;;;;
2021/07/27 00:48:36;;;;;;;;;;;18.00;99.90;;;;;;5085012;28;20011;-84
2021/07/27 00:57:18;;;;;;;;;;;;;;;;;;;;;
2021/07/27 01:00:12;;;;;;;;;;;18.00;99.90;;;;;;5084004;28;20354;-84
2021/07/27 01:02:43;;;;;;;;;;;17.90;99.90;;;;;;5083663;28;20457;-85
2021/07/27 01:05:18;;;;;;;;;;;17.90;99.90;;;;;;5065334;28;19934;-84
2021/07/27 01:07:49;;;;;;;;;;;17.90;99.90;;;;;;5067059;28;19923;-84
2021/07/27 01:10:21;;;;;;;;;;;17.80;99.90;;;;;;5084378;28;19912;-84
2021/07/27 01:17:02;;;;;;;;;;;17.80;99.90;;;;;;5018722;28;19916;-84
2021/07/27 01:19:20;;;;;;;;;;;17.80;99.90;;;;;;5096249;23;20365;-84
2021/07/27 01:40:59;;;;;;;;;;;17.80;99.90;;;;;;5059183;28;19919;-83
2021/07/27 01:43:29;;;;;;;;;;;17.90;99.90;;;;;;5051879;28;19913;-82
2021/07/27 01:45:55;;;;;;;;;;;17.90;99.90;;;;;;5060524;28;20444;-82
2021/07/27 01:48:20;;;;;;;;;;;17.90;99.90;;;;;;5057361;28;19960;-83
2021/07/27 01:50:45;;;;;;;;;;;17.90;99.90;;;;;;5061383;28;20331;-83
2021/07/27 01:53:15;;;;;;;;;;;17.90;99.90;;;;;;5047716;28;20293;-82
2021/07/27 01:55:40;;;;;;;;;;;17.80;99.90;;;;;;5041409;28;19917;-83
2021/07/27 01:58:06;;;;;;;;;;;17.80;99.90;;;;;;5054219;28;19912;-82
2021/07/27 02:00:32;;;;;;;;;;;17.80;99.90;;;;;;5059848;28;19917;-83
2021/07/27 02:02:57;;;;;;;;;;;17.80;99.90;;;;;;5041452;28;20332;-82
2021/07/27 02:05:22;;;;;;;;;;;17.70;99.90;;;;;;5059362;28;20347;-82
2021/07/27 02:07:48;;;;;;;;;;;17.70;99.90;;;;;;5060673;28;19913;-83
2021/07/27 02:10:15;;;;;;;;;;;17.70;99.90;;;;;;5061269;28;19932;-82
2021/07/27 02:12:50;;;;;;;;;;;17.70;99.90;;;;;;5059792;28;19927;-82
2021/07/27 02:15:16;;;;;;;;;;;17.60;99.90;;;;;;5058817;28;19923;-83
2021/07/27 02:17:42;;;;;;;;;;;17.60;99.90;;;;;;5058469;28;19939;-82
2021/07/27 02:20:07;;;;;;;;;;;17.60;99.90;;;;;;5047875;28;19916;-83
2021/07/27 02:22:33;;;;;;;;;;;17.60;99.90;;;;;;5059230;28;19919;-83
2021/07/27 02:24:59;;;;;;;;;;;17.50;99.90;;;;;;5063276;28;19920;-82
2021/07/27 02:27:24;;;;;;;;;;;17.50;99.90;;;;;;5064773;28;20376;-83
2021/07/27 02:29:50;;;;;;;;;;;17.50;99.90;;;;;;5064822;28;19916;-82
2021/07/27 02:32:15;;;;;;;;;;;17.50;99.90;;;;;;5043115;28;19933;-82
2021/07/27 02:34:41;;;;;;;;;;;17.50;99.90;;;;;;5060168;28;19909;-83
2021/07/27 02:37:06;;;;;;;;;;;17.50;99.90;;;;;;5039628;28;20453;-82
2021/07/27 02:39:32;;;;;;;;;;;17.50;99.90;;;;;;5059613;28;19913;-82
2021/07/27 02:41:58;;;;;;;;;;;17.50;99.90;;;;;;5060247;28;19909;-82
2021/07/27 02:44:23;;;;;;;;;;;17.40;99.90;;;;;;5059518;28;19920;-83
2021/07/27 02:46:50;;;;;;;;;;;17.40;99.90;;;;;;5057599;28;19916;-82
2021/07/27 02:49:15;;;;;;;;;;;17.40;99.90;;;;;;5037435;28;20029;-82
2021/07/27 02:51:46;;;;;;;;;;;17.40;99.90;;;;;;5037896;28;19944;-82
2021/07/27 02:54:12;;;;;;;;;;;17.30;99.90;;;;;;5056211;28;19955;-83
2021/07/27 02:56:37;;;;;;;;;;;17.30;99.90;;;;;;5057794;28;19913;-82
2021/07/27 02:59:02;;;;;;;;;;;17.30;99.90;;;;;;5056859;28;19909;-82
2021/07/27 03:01:28;;;;;;;;;;;17.30;99.90;;;;;;5057662;28;19920;-82
2021/07/27 03:03:54;;;;;;;;;;;17.20;99.90;;;;;;5056724;28;19909;-83
2021/07/27 03:06:19;;;;;;;;;;;17.20;99.90;;;;;;5055598;28;19912;-82
2021/07/27 03:08:52;;;;;;;;;;;17.20;99.90;;;;;;5058494;28;20099;-84
2021/07/27 03:11:18;;;;;;;;;;;17.10;99.90;;;;;;5059605;28;20065;-82
2021/07/27 03:13:43;;;;;;;;;;;17.10;99.90;;;;;;5059527;28;19913;-83
2021/07/27 03:16:20;;;;;;;;;;;17.00;99.90;;;;;;5062189;28;19920;-83
2021/07/27 03:18:46;;;;;;;;;;;17.00;99.90;;;;;;5065078;28;20392;-83
2021/07/27 03:21:12;;;;;;;;;;;17.00;99.90;;;;;;5064069;28;19917;-82
2021/07/27 03:23:38;;;;;;;;;;;17.00;99.90;;;;;;5060928;28;19920;-83
2021/07/27 03:26:03;;;;;;;;;;;16.90;99.90;;;;;;5064038;28;19923;-83
2021/07/27 03:28:28;;;;;;;;;;;16.90;99.90;;;;;;5046800;28;19944;-83
2021/07/27 03:30:54;;;;;;;;;;;16.90;99.90;;;;;;5035794;28;19913;-83
2021/07/27 03:33:19;;;;;;;;;;;16.80;99.90;;;;;;5063085;28;19924;-82
2021/07/27 03:35:45;;;;;;;;;;;16.80;99.90;;;;;;5063599;28;19917;-82
2021/07/27 03:38:10;;;;;;;;;;;16.80;99.90;;;;;;5061137;28;19913;-82
2021/07/27 03:40:36;;;;;;;;;;;16.80;99.90;;;;;;5063061;28;19954;-82
2021/07/27 03:43:01;;;;;;;;;;;16.70;99.90;;;;;;5057050;28;19939;-82
2021/07/27 03:45:27;;;;;;;;;;;16.70;99.90;;;;;;5063117;28;19966;-83
2021/07/27 03:47:52;;;;;;;;;;;16.70;99.90;;;;;;5063228;28;19919;-83
2021/07/27 03:50:18;;;;;;;;;;;16.70;99.90;;;;;;5062522;28;20339;-83
2021/07/27 03:52:43;;;;;;;;;;;16.70;99.90;;;;;;5061819;28;19913;-83
2021/07/27 03:55:09;;;;;;;;;;;16.70;99.90;;;;;;5062378;28;20001;-87
2021/07/27 03:57:34;;;;;;;;;;;16.70;99.90;;;;;;5047550;28;19920;-86
2021/07/27 04:00:00;;;;;;;;;;;16.70;99.90;;;;;;5063808;28;19939;-87
2021/07/27 04:02:25;;;;;;;;;;;16.70;99.90;;;;;;5066631;28;19920;-86
2021/07/27 04:04:51;;;;;;;;;;;16.70;99.90;;;;;;5064740;28;20353;-86
2021/07/27 04:07:16;;;;;;;;;;;16.80;99.90;;;;;;5064282;28;19927;-87
2021/07/27 04:09:42;;;;;;;;;;;16.80;99.90;;;;;;5067350;28;19909;-86
2021/07/27 04:12:07;;;;;;;;;;;16.80;99.90;;;;;;5065771;28;19960;-85
2021/07/27 04:14:33;;;;;;;;;;;16.80;99.90;;;;;;5065129;28;19939;-86
2021/07/27 04:16:59;;;;;;;;;;;16.90;99.90;;;;;;5056353;28;19960;-85
2021/07/27 04:19:24;;;;;;;;;;;16.90;99.90;;;;;;5062836;28;19917;-86
2021/07/27 04:21:50;;;;;;;;;;;17.00;99.90;;;;;;5046553;28;19948;-83
2021/07/27 04:24:17;;;;;;;;;;;17.00;99.90;;;;;;5064054;28;19920;-84
2021/07/27 04:26:45;;;;;;;;;;;17.10;99.90;;;;;;5064831;28;19908;-83
2021/07/27 04:29:10;;;;;;;;;;;17.20;99.90;;;;;;5063053;28;19952;-83
2021/07/27 04:31:35;;;;;;;;;;;17.30;99.90;;;;;;5063394;28;19909;-86
2021/07/27 04:34:01;;;;;;;;;;;17.30;99.90;;;;;;5062337;28;19913;-86
2021/07/27 04:36:26;;;;;;;;;;;17.40;99.90;;;;;;5045076;28;19923;-83
2021/07/27 04:38:52;;;;;;;;;;;17.40;99.90;;;;;;5062991;28;20304;-86
2021/07/27 04:41:17;;;;;;;;;;;17.50;99.90;;;;;;5064594;28;19912;-86
2021/07/27 04:43:43;;;;;;;;;;;17.50;99.90;;;;;;5062882;28;20335;-85
2021/07/27 04:46:08;;;;;;;;;;;17.50;99.90;;;;;;5063928;28;19912;-84
2021/07/27 04:48:34;;;;;;;;;;;17.60;99.90;;;;;;5062369;28;19980;-85
2021/07/27 04:51:00;;;;;;;;;;;17.70;99.90;;;;;;5043869;28;19917;-85
2021/07/27 04:53:26;;;;;;;;;;;17.70;99.90;;;;;;5055085;28;19909;-85
2021/07/27 04:55:57;;;;;;;;;;;17.70;99.90;;;;;;5063089;28;19921;-86
2021/07/27 04:58:23;;;;;;;;;;;17.60;99.90;;;;;;5060027;28;20376;-85
2021/07/27 05:00:48;;;;;;;;;;;17.60;99.90;;;;;;5061328;28;19956;-86
2021/07/27 05:03:14;;;;;;;;;;;17.60;99.90;;;;;;5062783;28;19996;-85
2021/07/27 05:05:39;;;;;;;;;;;17.50;99.90;;;;;;5038519;28;19975;-86
2021/07/27 05:08:05;;;;;;;;;;;17.50;99.90;;;;;;5060069;28;19962;-86
2021/07/27 05:10:30;;;;;;;;;;;17.50;99.90;;;;;;5061768;28;20453;-86
2021/07/27 05:12:56;;;;;;;;;;;17.40;99.90;;;;;;5062129;28;19915;-83
2021/07/27 05:15:21;;;;;;;;;;;17.40;99.90;;;;;;5063515;28;20350;-85
2021/07/27 05:17:56;;;;;;;;;;;17.50;99.90;;;;;;5064153;28;19968;-86
2021/07/27 05:20:22;;;;;;;;;;;17.40;99.90;;;;;;5062765;28;19925;-86
2021/07/27 05:22:47;;;;;;;;;;;17.50;99.90;;;;;;5043025;28;19919;-86
2021/07/27 05:25:15;;;;;;;;;;;17.50;99.90;;;;;;5065317;28;19927;-86
2021/07/27 05:27:41;;;;;;;;;;;17.60;99.90;;;;;;5045956;28;20002;-86
2021/07/27 05:30:06;;;;;;;;;;;17.60;99.90;;;;;;5062964;28;19912;-86
2021/07/27 05:32:31;;;;;;;;;;;17.70;99.90;;;;;;5046466;28;19952;-85
2021/07/27 05:34:59;;;;;;;;;;;17.70;99.90;;;;;;5062904;28;19935;-86
2021/07/27 05:37:24;;;;;;;;;;;17.80;99.90;;;;;;5063607;28;19920;-86
2021/07/27 05:39:50;;;;;;;;;;;17.90;99.90;;;;;;5058673;28;19913;-85
2021/07/27 05:42:16;;;;;;;;;;;18.00;99.90;;;;;;5059434;28;19916;-84
2021/07/27 05:44:41;;;;;;;;;;;18.10;99.90;;;;;;5057809;28;20024;-84
2021/07/27 05:47:09;;;;;;;;;;;18.20;99.90;;;;;;5041958;28;19909;-84
2021/07/27 05:49:37;;;;;;;;;;;18.40;99.90;;;;;;5053758;28;21705;-84
2021/07/27 05:52:02;;;;;;;;;;;18.70;99.90;;;;;;5056604;28;20338;-84
2021/07/27 05:54:30;;;;;;;;;;;19.00;99.90;;;;;;5057822;28;19936;-85
2021/07/27 05:56:56;;;;;;;;;;;19.30;99.90;;;;;;5055586;28;19924;-84
2021/07/27 05:59:21;;;;;;;;;;;19.70;99.90;;;;;;5060419;28;19913;-85
2021/07/27 06:01:47;;;;;;;;;;;20.00;99.90;;;;;;5052299;28;20015;-85
2021/07/27 06:04:13;;;;;;;;;;;20.50;99.90;;;;;;5038540;28;19920;-85
2021/07/27 06:06:39;;;;;;;;;;;20.70;99.90;;;;;;5062897;28;19917;-85
2021/07/27 06:09:06;;;;;;;;;;;20.70;99.90;;;;;;5055509;28;19947;-85
2021/07/27 06:11:32;;;;;;;;;;;20.60;99.90;;;;;;5060108;28;19948;-85
2021/07/27 06:14:00;;;;;;;;;;;20.40;99.90;;;;;;5062025;28;19920;-84
2021/07/27 06:16:25;;;;;;;;;;;20.30;99.90;;;;;;5063419;28;19920;-84
2021/07/27 06:18:51;;;;;;;;;;;20.30;99.90;;;;;;5058616;28;19913;-84
2021/07/27 06:21:18;;;;;;;;;;;20.30;99.90;;;;;;5059141;28;21447;-83
2021/07/27 06:23:44;;;;;;;;;;;20.60;99.90;;;;;;5057850;28;19959;-84
2021/07/27 06:26:10;;;;;;;;;;;20.90;99.90;;;;;;5060068;28;19917;-84
2021/07/27 06:28:36;;;;;;;;;;;21.30;99.90;;;;;;5060220;28;20407;-84
2021/07/27 06:31:10;;;;;;;;;;;22.10;99.90;;;;;;5056255;28;19920;-85
2021/07/27 06:33:37;;;;;;;;;;;22.80;99.90;;;;;;5037038;28;19968;-83
2021/07/27 06:36:03;;;;;;;;;;;23.10;99.90;;;;;;5062191;28;19955;-83
2021/07/27 06:38:28;;;;;;;;;;;23.60;99.90;;;;;;5064126;28;19932;-84
2021/07/27 06:40:59;;;;;;;;;;;24.20;99.90;;;;;;5059737;28;19928;-84
2021/07/27 06:43:24;;;;;;;;;;;24.90;99.90;;;;;;5060162;28;19919;-83
2021/07/27 06:45:56;;;;;;;;;;;25.40;99.90;;;;;;5062768;28;20319;-83
2021/07/27 06:48:27;;;;;;;;;;;25.30;99.90;;;;;;5041517;28;19995;-83
2021/07/27 06:51:06;;;;;;;;;;;24.90;99.90;;;;;;5059350;28;20368;-83
2021/07/27 06:53:32;;;;;;;;;;;24.90;99.90;;;;;;5061547;28;19964;-83
2021/07/27 06:55:57;;;;;;;;;;;25.00;99.90;;;;;;5062559;28;19920;-83
2021/07/27 06:58:22;;;;;;;;;;;25.20;99.90;;;;;;5063328;28;19912;-82
2021/07/27 07:00:48;;;;;;;;;;;25.50;99.90;;;;;;5063685;28;19916;-83
2021/07/27 07:03:13;;;;;;;;;;;26.00;99.90;;;;;;5061915;28;19917;-82
2021/07/27 07:05:42;;;;;;;;;;;26.20;99.90;;;;;;5044965;28;19912;-83
2021/07/27 07:08:07;;;;;;;;;;;26.10;99.90;;;;;;5039756;28;20288;-84
2021/07/27 07:10:35;;;;;;;;;;;26.30;99.90;;;;;;5041891;28;19920;-83
2021/07/27 07:13:01;;;;;;;;;;;26.60;99.90;;;;;;5059461;28;19919;-83
2021/07/27 07:15:26;;;;;;;;;;;26.60;99.90;;;;;;5061092;28;19924;-83
2021/07/27 07:17:52;;;;;;;;;;;27.20;99.90;;;;;;5063103;28;19967;-83
2021/07/27 07:20:27;;;;;;;;;;;28.30;99.90;;;;;;5090041;22;20006;-83
2021/07/27 07:26:10;;;;;;;;;;;28.20;99.90;;;;;;5078884;28;19913;-83
2021/07/27 07:31:44;;;;;;;;;;;27.50;99.90;;;;;;5054141;28;19913;-82
2021/07/27 07:34:10;;;;;;;;;;;29.00;99.90;;;;;;5053458;28;20536;-83
2021/07/27 07:36:44;;;;;;;;;;;30.70;99.90;;;;;;5036871;28;19920;-83
2021/07/27 07:39:36;;;;;;;;;;;33.00;99.90;;;;;;5060537;28;19913;-83
2021/07/27 07:45:15;;;;;;;;;;;;;;;;;;;;;
2021/07/27 07:48:01;;;;;;;;;;;41.70;72.30;;;;;;5051776;28;19919;-83
2021/07/27 07:50:50;;;;;;;;;;;43.10;64.20;;;;;;5031813;28;19913;-83
2021/07/27 07:53:24;;;;;;;;;;;42.40;60.50;;;;;;5052436;28;19917;-83
2021/07/27 07:55:50;;;;;;;;;;;40.80;62.30;;;;;;5057417;28;19924;-83
2021/07/27 07:58:17;;;;;;;;;;;40.20;62.40;;;;;;5064914;28;19924;-84
2021/07/27 08:00:43;;;;;;;;;;;40.70;62.10;;;;;;5042662;28;19975;-84
2021/07/27 08:03:08;;;;;;;;;;;42.20;59.50;;;;;;5055946;28;19917;-84
2021/07/27 08:05:34;;;;;;;;;;;42.30;57.90;;;;;;5058426;28;19917;-84
2021/07/27 08:07:59;;;;;;;;;;;41.30;58.10;;;;;;5039711;28;20377;-84
2021/07/27 08:10:26;;;;;;;;;;;39.40;60.00;;;;;;5068418;28;20039;-84
2021/07/27 08:12:51;;;;;;;;;;;38.00;62.60;;;;;;5053321;28;20003;-84
2021/07/27 08:15:18;;;;;;;;;;;37.30;64.20;;;;;;5056078;28;20007;-84
2021/07/27 08:17:44;;;;;;;;;;;37.10;64.70;;;;;;5045104;28;19924;-83
2021/07/27 08:20:10;;;;;;;;;;;37.80;63.70;;;;;;5046044;28;20287;-84
2021/07/27 08:22:38;;;;;;;;;;;40.20;60.20;;;;;;5044558;28;20257;-84
2021/07/27 08:25:07;;;;;;;;;;;42.10;57.30;;;;;;5053895;28;20475;-84
2021/07/27 08:27:32;;;;;;;;;;;43.70;55.20;;;;;;5060611;28;20368;-84
2021/07/27 08:29:58;;;;;;;;;;;45.10;53.00;;;;;;5039345;28;19913;-84
2021/07/27 08:32:23;;;;;;;;;;;45.40;52.60;;;;;;5037538;28;19913;-84
2021/07/27 08:34:51;;;;;;;;;;;46.80;50.70;;;;;;5046890;28;19955;-85
2021/07/27 08:37:16;;;;;;;;;;;47.90;49.00;;;;;;5066406;28;20357;-87
2021/07/27 08:39:42;;;;;;;;;;;48.20;48.00;;;;;;5071349;28;19936;-88
2021/07/27 08:42:08;;;;;;;;;;;46.00;48.00;;;;;;5061811;28;19913;-86
2021/07/27 08:44:34;;;;;;;;;;;43.60;49.90;;;;;;5065285;28;19913;-84
2021/07/27 08:47:03;;;;;;;;;;;42.40;50.10;;;;;;5060290;28;19917;-83
2021/07/27 08:49:29;;;;;;;;;;;41.60;50.80;;;;;;5048588;28;19920;-83
2021/07/27 08:51:55;;;;;;;;;;;39.80;51.90;;;;;;5048733;28;19916;-83
2021/07/27 08:54:20;;;;;;;;;;;38.00;53.10;;;;;;5064363;28;19912;-82
2021/07/27 08:56:47;;;;;;;;;;;36.40;54.70;;;;;;5062367;28;19948;-82
2021/07/27 08:59:13;;;;;;;;;;;35.50;55.50;;;;;;5065688;28;19913;-83
2021/07/27 09:01:38;;;;;;;;;;;35.30;55.60;;;;;;5044750;28;20007;-83
2021/07/27 09:04:03;;;;;;;;;;;35.50;55.90;;;;;;5045469;28;19977;-84
2021/07/27 09:06:29;;;;;;;;;;;34.90;55.60;;;;;;5075030;28;19938;-83
2021/07/27 09:09:02;;;;;;;;;;;34.00;56.30;;;;;;5036747;28;19912;-83
2021/07/27 09:11:28;;;;;;;;;;;32.80;57.20;;;;;;5044247;28;20007;-83
2021/07/27 09:13:56;;;;;;;;;;;31.90;58.30;;;;;;5044432;28;20411;-83
2021/07/27 09:16:22;;;;;;;;;;;31.10;58.60;;;;;;5067751;28;19909;-83
2021/07/27 09:18:58;;;;;;;;;;;33.60;57.00;;;;;;5043192;28;19909;-84
2021/07/27 09:21:23;;;;;;;;;;;35.80;54.80;;;;;;5043156;28;19916;-83
2021/07/27 09:23:50;;;;;;;;;;;37.40;53.00;;;;;;5038926;28;20025;-85
2021/07/27 09:26:15;;;;;;;;;;;38.00;51.90;;;;;;5058091;28;19932;-84
2021/07/27 09:28:40;;;;;;;;;;;37.50;52.00;;;;;;5058936;28;19913;-84
2021/07/27 09:31:06;;;;;;;;;;;36.80;52.20;;;;;;5068175;28;20292;-84
2021/07/27 09:33:33;;;;;;;;;;;37.00;52.00;;;;;;5055113;28;19908;-84
2021/07/27 09:35:59;;;;;;;;;;;37.30;50.80;;;;;;5040877;28;20442;-84
2021/07/27 09:38:26;;;;;;;;;;;36.80;51.10;;;;;;5042497;28;19913;-84
2021/07/27 09:40:51;;;;;;;;;;;36.80;51.30;;;;;;5041147;28;19913;-84
2021/07/27 09:43:21;;;;;;;;;;;37.80;50.60;;;;;;5042472;28;19927;-83
2021/07/27 09:45:47;;;;;;;;;;;38.00;50.00;;;;;;5050484;28;20011;-84
2021/07/27 09:48:13;;;;;;;;;;;37.70;49.90;;;;;;5045692;28;19919;-84
2021/07/27 09:50:39;;;;;;;;;;;37.50;50.00;;;;;;5036862;28;19980;-84
2021/07/27 09:53:04;;;;;;;;;;;37.90;49.60;;;;;;5041800;28;19921;-84
2021/07/27 09:55:31;;;;;;;;;;;38.60;48.70;;;;;;5040112;28;20404;-84
2021/07/27 09:57:58;;;;;;;;;;;39.20;47.90;;;;;;5044489;28;19966;-84
2021/07/27 10:00:25;;;;;;;;;;;39.20;47.10;;;;;;5056962;28;20008;-84
2021/07/27 10:02:52;;;;;;;;;;;39.90;46.20;;;;;;5058599;28;20383;-84
2021/07/27 10:05:23;;;;;;;;;;;40.20;45.40;;;;;;5065867;28;20515;-84
2021/07/27 10:08:07;;;;;;;;;;;39.60;45.20;;;;;;5032600;28;20331;-84
2021/07/27 10:10:43;;;;;;;;;;;38.80;45.60;;;;;;5053351;28;20384;-84
2021/07/27 10:13:14;;;;;;;;;;;37.10;46.10;;;;;;5054695;28;20007;-83
2021/07/27 10:15:44;;;;;;;;;;;35.70;47.00;;;;;;5038734;28;19928;-83
2021/07/27 10:18:10;;;;;;;;;;;35.00;47.60;;;;;;5039355;28;19991;-83
2021/07/27 10:20:36;;;;;;;;;;;34.60;48.10;;;;;;5055252;28;19927;-83
2021/07/27 10:23:13;;;;;;;;;;;34.20;48.30;;;;;;5046816;28;19939;-83
2021/07/27 10:25:38;;;;;;;;;;;33.70;48.50;;;;;;5038426;28;19917;-84
2021/07/27 10:28:04;;;;;;;;;;;33.20;48.90;;;;;;5039380;28;19913;-83
2021/07/27 10:30:30;;;;;;;;;;;32.80;49.00;;;;;;5041814;28;19912;-84
2021/07/27 10:32:56;;;;;;;;;;;32.50;49.40;;;;;;5071719;28;20292;-83
2021/07/27 10:35:25;;;;;;;;;;;32.20;49.80;;;;;;5040037;28;19962;-84
2021/07/27 10:37:50;;;;;;;;;;;31.90;50.10;;;;;;5046327;28;19935;-83
2021/07/27 10:40:26;;;;;;;;;;;31.60;50.40;;;;;;5056312;28;19914;-83
2021/07/27 10:42:51;;;;;;;;;;;31.30;50.50;;;;;;5038252;28;19917;-84
2021/07/27 10:45:18;;;;;;;;;;;31.20;50.70;;;;;;5036957;28;19912;-83
2021/07/27 10:47:50;;;;;;;;;;;31.60;50.60;;;;;;5049483;28;19913;-83
2021/07/27 10:50:15;;;;;;;;;;;32.40;50.10;;;;;;5051010;28;20352;-83
2021/07/27 10:52:42;;;;;;;;;;;33.20;49.50;;;;;;5036428;28;19913;-83
2021/07/27 10:55:10;;;;;;;;;;;33.80;48.90;;;;;;5046517;28;19917;-83
2021/07/27 10:57:37;;;;;;;;;;;34.50;48.40;;;;;;5066235;28;20285;-84
2021/07/27 11:00:06;;;;;;;;;;;34.70;48.10;;;;;;5061303;28;20335;-83
2021/07/27 11:02:32;;;;;;;;;;;34.80;48.00;;;;;;5043465;28;19934;-84
2021/07/27 11:04:57;;;;;;;;;;;34.80;48.00;;;;;;5069403;28;19917;-83
2021/07/27 11:07:23;;;;;;;;;;;34.60;48.00;;;;;;5044353;28;20436;-83
2021/07/27 11:09:52;;;;;;;;;;;33.90;48.40;;;;;;5059496;28;19913;-83
2021/07/27 11:12:28;;;;;;;;;;;33.30;49.00;;;;;;5038723;28;19948;-83
2021/07/27 11:15:06;;;;;;;;;;;33.10;49.40;;;;;;5059886;28;19913;-83
2021/07/27 11:17:31;;;;;;;;;;;33.70;49.00;;;;;;5069980;28;20290;-83
2021/07/27 11:20:01;;;;;;;;;;;33.90;48.40;;;;;;5047432;28;19916;-83
2021/07/27 11:22:26;;;;;;;;;;;34.30;48.50;;;;;;5059696;28;19916;-83
2021/07/27 11:24:55;;;;;;;;;;;34.90;48.00;;;;;;5057224;28;19909;-83
2021/07/27 11:27:27;;;;;;;;;;;35.00;47.40;;;;;;5059006;28;19924;-84
2021/07/27 11:29:56;;;;;;;;;;;34.80;47.70;;;;;;5055868;28;19909;-84
2021/07/27 11:32:25;;;;;;;;;;;35.50;47.60;;;;;;5021067;28;20300;-83
2021/07/27 11:34:57;;;;;;;;;;;36.10;47.10;;;;;;5054177;28;19991;-84
2021/07/27 11:37:26;;;;;;;;;;;36.40;46.90;;;;;;5069058;28;19914;-83
2021/07/27 11:39:52;;;;;;;;;;;36.50;46.80;;;;;;5051153;28;19913;-84
2021/07/27 11:42:27;;;;;;;;;;;36.80;46.50;;;;;;5058336;28;19913;-84
2021/07/27 11:44:52;;;;;;;;;;;37.10;46.30;;;;;;5043586;28;19977;-82
2021/07/27 11:47:18;;;;;;;;;;;37.00;46.00;;;;;;5061134;28;19924;-83
2021/07/27 11:50:05;;;;;;;;;;;37.30;46.00;;;;;;5053689;28;20320;-83
2021/07/27 11:52:31;;;;;;;;;;;37.80;45.50;;;;;;5054093;28;20007;-83
2021/07/27 11:55:03;;;;;;;;;;;38.20;45.20;;;;;;5057453;28;19994;-83
2021/07/27 11:57:34;;;;;;;;;;;38.40;44.90;;;;;;5058944;28;19908;-83
2021/07/27 12:00:06;;;;;;;;;;;38.60;44.60;;;;;;5057446;28;19908;-84
2021/07/27 12:02:34;;;;;;;;;;;38.90;44.40;;;;;;5038537;28;19924;-83
2021/07/27 12:05:13;;;;;;;;;;;;;;;;;;;;;
2021/07/27 12:07:42;;;;;;;;;;;39.00;44.10;;;;;;5056923;28;19920;-83
2021/07/27 12:10:08;;;;;;;;;;;39.40;43.70;;;;;;5041811;28;19924;-83
2021/07/27 12:12:34;;;;;;;;;;;39.50;43.10;;;;;;5061253;28;19943;-83
2021/07/27 12:14:59;;;;;;;;;;;39.70;42.80;;;;;;5059664;28;19913;-83
2021/07/27 12:17:25;;;;;;;;;;;39.60;42.40;;;;;;5060458;28;19913;-84
2021/07/27 12:19:50;;;;;;;;;;;39.30;42.00;;;;;;5042920;28;19940;-82
2021/07/27 12:22:16;;;;;;;;;;;38.70;42.60;;;;;;5061248;28;19921;-82
2021/07/27 12:24:42;;;;;;;;;;;38.80;42.60;;;;;;5056094;28;19950;-82
2021/07/27 12:27:07;;;;;;;;;;;39.10;41.70;;;;;;5062781;28;19959;-83
2021/07/27 12:29:35;;;;;;;;;;;38.70;42.00;;;;;;5062979;28;20275;-83
2021/07/27 12:32:01;;;;;;;;;;;38.70;42.10;;;;;;5062513;28;19913;-83
2021/07/27 12:34:26;;;;;;;;;;;39.00;41.90;;;;;;5063726;28;20342;-82
2021/07/27 12:36:55;;;;;;;;;;;38.80;41.60;;;;;;5065830;28;20003;-83
2021/07/27 12:39:22;;;;;;;;;;;38.60;41.90;;;;;;5051556;28;19971;-83
2021/07/27 12:41:47;;;;;;;;;;;38.70;41.50;;;;;;5045043;28;19943;-83
2021/07/27 12:44:15;;;;;;;;;;;38.70;41.30;;;;;;5052338;28;19999;-83
2021/07/27 12:46:41;;;;;;;;;;;38.40;41.50;;;;;;5063826;28;19920;-84
2021/07/27 12:49:09;;;;;;;;;;;37.70;41.70;;;;;;5056185;28;19920;-82
2021/07/27 12:51:34;;;;;;;;;;;37.00;42.20;;;;;;5044602;28;19935;-83
2021/07/27 12:54:00;;;;;;;;;;;36.60;42.80;;;;;;5062921;28;19909;-83
2021/07/27 12:56:25;;;;;;;;;;;36.40;42.80;;;;;;5045738;28;19909;-81
2021/07/27 12:58:51;;;;;;;;;;;36.30;43.10;;;;;;5054562;28;19959;-81
2021/07/27 13:01:16;;;;;;;;;;;36.10;43.00;;;;;;5042089;28;19924;-81
2021/07/27 13:03:42;;;;;;;;;;;35.70;43.30;;;;;;5041352;28;19955;-81
2021/07/27 13:06:08;;;;;;;;;;;35.70;43.30;;;;;;5041755;28;20280;-81
2021/07/27 13:08:34;;;;;;;;;;;36.00;43.10;;;;;;5042365;28;19954;-81
2021/07/27 13:11:00;;;;;;;;;;;35.90;42.80;;;;;;5042652;28;19916;-81
2021/07/27 13:13:25;;;;;;;;;;;35.40;43.20;;;;;;5062364;28;19944;-81
2021/07/27 13:15:50;;;;;;;;;;;35.00;43.70;;;;;;5040929;28;19952;-80
2021/07/27 13:18:17;;;;;;;;;;;34.90;44.00;;;;;;5040174;28;19921;-81
2021/07/27 13:20:43;;;;;;;;;;;34.90;43.90;;;;;;5043676;28;19913;-81
2021/07/27 13:23:08;;;;;;;;;;;35.10;43.70;;;;;;5042761;28;19951;-81
2021/07/27 13:25:34;;;;;;;;;;;35.60;43.50;;;;;;5062039;28;19912;-81
2021/07/27 13:28:00;;;;;;;;;;;35.80;42.90;;;;;;5044169;28;20007;-82
2021/07/27 13:30:25;;;;;;;;;;;35.60;43.10;;;;;;5062189;28;20378;-82
2021/07/27 13:32:51;;;;;;;;;;;35.30;43.20;;;;;;5025352;28;19909;-82
2021/07/27 13:35:16;;;;;;;;;;;34.90;43.30;;;;;;5064306;28;19998;-81
2021/07/27 13:37:42;;;;;;;;;;;34.30;43.70;;;;;;5065062;28;19905;-81
2021/07/27 13:40:08;;;;;;;;;;;33.70;44.20;;;;;;5061398;28;19904;-81
2021/07/27 13:42:34;;;;;;;;;;;33.10;44.70;;;;;;5043017;28;19908;-81
2021/07/27 13:44:59;;;;;;;;;;;32.60;45.10;;;;;;5043382;28;19958;-81
2021/07/27 13:47:28;;;;;;;;;;;32.00;45.40;;;;;;5042034;28;19920;-81
2021/07/27 13:49:53;;;;;;;;;;;31.50;45.90;;;;;;5037250;28;19921;-81
2021/07/27 13:52:19;;;;;;;;;;;30.90;46.40;;;;;;5037649;28;19931;-81
2021/07/27 13:54:44;;;;;;;;;;;30.30;46.80;;;;;;5057362;28;19908;-81
2021/07/27 13:57:10;;;;;;;;;;;29.80;47.20;;;;;;5060768;28;19909;-80
2021/07/27 13:59:35;;;;;;;;;;;29.40;47.60;;;;;;5048536;28;19909;-80
2021/07/27 14:02:01;;;;;;;;;;;29.30;47.90;;;;;;5040035;28;19936;-80
2021/07/27 14:04:31;;;;;;;;;;;29.20;48.00;;;;;;5035647;28;20388;-81
2021/07/27 14:06:57;;;;;;;;;;;29.20;48.00;;;;;;5039813;28;19920;-81
2021/07/27 14:09:25;;;;;;;;;;;29.20;48.00;;;;;;5041012;28;19919;-81
2021/07/27 14:11:51;;;;;;;;;;;29.20;48.00;;;;;;5057335;28;19923;-81
2021/07/27 14:14:16;;;;;;;;;;;29.10;48.00;;;;;;5059896;28;19913;-80
2021/07/27 14:16:42;;;;;;;;;;;28.90;48.10;;;;;;5063029;28;19946;-81
2021/07/27 14:19:07;;;;;;;;;;;28.80;48.30;;;;;;5060116;28;19908;-80
2021/07/27 14:21:33;;;;;;;;;;;28.70;48.50;;;;;;5044290;28;19924;-81
2021/07/27 14:23:58;;;;;;;;;;;28.50;48.70;;;;;;5040492;28;19912;-81
2021/07/27 14:26:25;;;;;;;;;;;28.40;48.80;;;;;;5059801;28;19912;-81
2021/07/27 14:28:50;;;;;;;;;;;28.30;48.90;;;;;;5058687;28;19932;-81
2021/07/27 14:31:16;;;;;;;;;;;28.30;49.10;;;;;;5058589;28;19909;-81
2021/07/27 14:33:41;;;;;;;;;;;28.20;49.20;;;;;;5058957;28;20007;-81
2021/07/27 14:36:08;;;;;;;;;;;28.10;49.30;;;;;;5058877;28;20681;-81
2021/07/27 14:38:34;;;;;;;;;;;28.00;49.40;;;;;;5040713;28;19962;-81
2021/07/27 14:41:00;;;;;;;;;;;27.80;49.60;;;;;;5054883;28;19925;-81
2021/07/27 14:43:26;;;;;;;;;;;27.70;49.80;;;;;;5038366;28;19916;-81
2021/07/27 14:45:51;;;;;;;;;;;27.50;50.00;;;;;;5047452;28;19936;-81
2021/07/27 14:48:19;;;;;;;;;;;27.10;50.40;;;;;;5058606;28;20364;-81
2021/07/27 14:50:45;;;;;;;;;;;26.50;50.80;;;;;;5058823;28;20015;-82
2021/07/27 14:53:10;;;;;;;;;;;26.00;51.60;;;;;;5059096;28;19940;-81
2021/07/27 14:55:36;;;;;;;;;;;25.40;52.00;;;;;;5059406;28;19913;-81
2021/07/27 14:58:02;;;;;;;;;;;25.00;52.40;;;;;;5053763;28;19968;-80
2021/07/27 15:00:27;;;;;;;;;;;24.60;52.70;;;;;;5039596;28;20434;-80
2021/07/27 15:02:53;;;;;;;;;;;24.30;52.90;;;;;;5037503;28;20000;-80
2021/07/27 15:05:18;;;;;;;;;;;24.00;53.20;;;;;;5044457;28;19916;-80
2021/07/27 15:07:44;;;;;;;;;;;23.40;53.90;;;;;;5058853;28;19931;-81
2021/07/27 15:10:13;;;;;;;;;;;22.80;54.70;;;;;;5058647;28;19909;-81
2021/07/27 15:12:39;;;;;;;;;;;22.40;55.40;;;;;;5059977;28;19913;-80
2021/07/27 15:15:05;;;;;;;;;;;22.20;56.00;;;;;;5044852;28;19913;-81
2021/07/27 15:17:31;;;;;;;;;;;22.00;56.20;;;;;;5052993;28;19917;-81
2021/07/27 15:19:56;;;;;;;;;;;22.00;56.40;;;;;;5061144;28;20194;-81
2021/07/27 15:22:22;;;;;;;;;;;22.00;56.40;;;;;;5062076;28;19921;-80
2021/07/27 15:24:47;;;;;;;;;;;22.00;57.00;;;;;;5044571;28;19909;-80
2021/07/27 15:27:13;;;;;;;;;;;22.10;56.60;;;;;;5050164;28;20351;-80
2021/07/27 15:29:38;;;;;;;;;;;22.20;56.50;;;;;;5048861;28;19952;-80